EDT,Max TemperatureF,Mean TemperatureF,Min TemperatureF,Max Dew PointF,MeanDew PointF,Min DewpointF,Max Humidity, Mean Humidity, Min Humidity, Max Sea Level PressureIn, Mean Sea Level PressureIn, Min Sea Level PressureIn, Max VisibilityMiles, Mean VisibilityMiles, Min VisibilityMiles, Max Wind SpeedMPH, Mean Wind SpeedMPH, Max Gust SpeedMPH,PrecipitationIn, CloudCover, Events, WindDirDegrees
2013-6-1,87,78,68,70,68,66,90,71,51,30.14,30.11,30.07,10,10,10,17,8,23,0.00,2,,133
2013-6-2,86,78,70,73,70,67,90,76,61,30.08,30.00,29.94,10,10,3,17,9,21,0.03,5,Rain,154
2013-6-3,90,83,75,74,72,68,94,72,50,29.96,29.92,29.87,10,10,10,14,6,18,0.01,6,Rain-Thunderstorm,211
2013-6-4,90,81,72,75,72,70,94,75,55,30.02,29.98,29.93,10,8,0,22,5,25,1.16,6,Fog-Rain-Thunderstorm,123
2013-6-5,80,76,71,75,73,69,94,84,74,30.04,29.99,29.93,10,8,1,20,6,23,1.40,6,Rain-Thunderstorm,118
2013-6-6,78,75,71,74,71,67,93,81,69,29.96,29.80,29.62,10,6,0,23,9,31,1.66,8,Fog-Rain,125
2013-6-7,89,80,71,72,71,68,93,73,53,29.89,29.66,29.47,10,8,2,22,12,28,0.32,7,Rain,224
2013-6-8,90,81,72,74,70,67,87,70,52,30.09,29.99,29.88,10,10,10,16,8,20,0.00,5,,222
2013-6-9,89,83,76,76,73,70,94,77,59,30.13,30.10,30.04,10,10,10,18,8,23,T,6,Rain,155
2013-6-10,90,81,71,75,72,66,93,75,56,30.11,30.06,29.96,10,9,0,41,9,56,0.31,6,Fog-Rain-Thunderstorm,205
2013-6-11,92,82,71,73,70,67,93,69,44,30.07,30.02,29.96,10,10,10,16,7,20,0.00,3,,236
2013-6-12,96,86,76,75,71,69,82,62,42,30.02,29.99,29.94,10,10,9,15,7,21,0.00,2,,267
2013-6-13,96,87,77,74,72,68,85,63,40,29.95,29.88,29.79,10,9,7,21,9,29,0.00,1,,250
2013-6-14,89,80,71,74,66,61,79,62,44,30.00,29.86,29.75,10,10,10,17,7,23,0.00,3,,20
2013-6-15,86,77,67,68,64,60,93,69,44,30.12,30.08,30.00,10,10,10,17,7,22,0.00,2,,102
2013-6-16,88,78,67,68,64,61,93,68,43,30.17,30.12,30.08,10,10,10,15,5,20,0.00,2,,152
2013-6-17,91,80,69,73,70,65,94,73,52,30.10,30.04,29.97,10,9,2,18,5,23,0.32,4,Rain-Thunderstorm,180
2013-6-18,92,83,73,74,71,68,94,72,49,30.01,29.95,29.88,10,10,7,18,8,24,0.00,5,,239
2013-6-19,88,80,72,75,71,70,87,73,59,30.05,29.99,29.93,10,8,1,17,7,21,1.30,6,Rain-Thunderstorm,240
2013-6-20,86,79,72,72,70,67,93,79,65,30.15,30.09,30.03,10,10,2,22,8,28,0.25,6,Rain,39
2013-6-21,87,78,68,72,67,63,90,68,46,30.18,30.14,30.12,10,10,10,15,8,20,T,5,,43
2013-6-22,86,80,73,73,71,68,94,77,59,30.17,30.14,30.11,10,10,7,15,4,18,T,6,Rain-Thunderstorm,51
2013-6-23,87,80,72,73,71,69,100,79,57,30.19,30.16,30.12,10,10,7,13,4,15,0.01,5,Fog-Rain-Thunderstorm,132
2013-6-24,89,81,73,74,72,69,93,74,55,30.23,30.18,30.14,10,10,9,13,5,15,0.00,4,Thunderstorm,189
2013-6-25,89,80,71,74,71,68,94,76,57,30.19,30.13,30.08,10,9,1,21,5,24,1.01,5,Rain-Thunderstorm,206
2013-6-26,91,81,71,74,71,69,93,75,56,30.11,30.05,29.99,10,10,7,18,6,22,0.04,4,Rain-Thunderstorm,213
2013-6-27,92,83,73,75,71,63,87,70,52,30.00,29.93,29.84,10,10,3,35,9,47,0.13,5,Rain-Thunderstorm,242
2013-6-28,94,84,74,76,72,67,93,73,52,29.88,29.80,29.70,10,10,10,35,11,44,0.00,5,,237
2013-6-29,87,80,73,74,71,69,93,75,57,29.79,29.76,29.72,10,10,8,20,7,25,0.03,6,Rain-Thunderstorm,222
2013-6-30,90,83,75,77,73,70,94,75,55,29.85,29.80,29.75,10,10,0,28,8,35,0.30,5,Rain-Thunderstorm,205